Eugene, Oregon
Current Conditions -  °F | °C
As of 2:54 AM on Saturday 25 Oct 2014 (Local Time) from KEUG Reporting Station
Haze Haze  
Wind Chill: 11°   Ceiling: 200
Heat Index: 11°   Visibility: 1.2mi
Dew Point: 10°   Wind: 6mph
Humidity: 96%   Direction: 40°NE
Pressure: 29.55"   Gusts: NA
Location:  44.05°N, 123.08°W
Report Text: KEUG 250954Z AUTO 04005KT 1 1/4SM R16R/4500VP6000FT BR OVC002 11/10 A2955 RMK AO2 SLP008 T01060100
Loading
Personal Weather Stations






























Interactive Weather Map
Tropical Storm Tracking
New forecast layout! Learn more

10-Day Weather Forecast

Advertisements
Track Severe Weather on mobile